sensor_id;sensor_type;location;lat;lon;timestamp;pressure;altitude;pressure_sealevel;temperature;humidity
13661;BME280;6903;49.480;11.102;2023-04-25T00:02:24;97156.59;;;9.26;100.00
13661;BME280;6903;49.480;11.102;2023-04-25T00:04:50;97161.72;;;9.27;100.00
13661;BME280;6903;49.480;11.102;2023-04-25T00:07:15;97170.53;;;9.26;100.00
13661;BME280;6903;49.480;11.102;2023-04-25T00:09:41;97158.81;;;9.30;100.00
13661;BME280;6903;49.480;11.102;2023-04-25T00:12:06;97156.19;;;9.30;100.00
13661;BME280;6903;49.480;11.102;2023-04-25T00:14:32;97151.06;;;9.29;100.00
13661;BME280;6903;49.480;11.102;2023-04-25T00:17:00;97157.03;;;9.31;100.00
13661;BME280;6903;49.480;11.102;2023-04-25T00:19:26;97149.81;;;9.33;100.00
13661;BME280;6903;49.480;11.102;2023-04-25T00:21:54;97157.84;;;9.31;100.00
13661;BME280;6903;49.480;11.102;2023-04-25T00:24:19;97152.56;;;9.31;100.00
13661;BME280;6903;49.480;11.102;2023-04-25T00:26:44;97158.53;;;9.33;100.00
13661;BME280;6903;49.480;11.102;2023-04-25T00:29:10;97157.03;;;9.31;100.00
13661;BME280;6903;49.480;11.102;2023-04-25T00:31:35;97165.84;;;9.30;100.00
13661;BME280;6903;49.480;11.102;2023-04-25T00:34:00;97159.66;;;9.31;100.00
13661;BME280;6903;49.480;11.102;2023-04-25T00:36:26;97159.50;;;9.32;100.00
13661;BME280;6903;49.480;11.102;2023-04-25T00:38:53;97158.53;;;9.33;100.00
13661;BME280;6903;49.480;11.102;2023-04-25T00:41:19;97154.13;;;9.34;100.00
13661;BME280;6903;49.480;11.102;2023-04-25T00:43:45;97161.03;;;9.35;100.00
13661;BME280;6903;49.480;11.102;2023-04-25T00:46:11;97156.63;;;9.35;100.00
13661;BME280;6903;49.480;11.102;2023-04-25T00:48:36;97151.22;;;9.37;100.00
13661;BME280;6903;49.480;11.102;2023-04-25T00:51:01;97154.41;;;9.40;100.00
13661;BME280;6903;49.480;11.102;2023-04-25T00:53:28;97156.78;;;9.43;100.00
13661;BME280;6903;49.480;11.102;2023-04-25T00:55:53;97154.84;;;9.45;100.00
13661;BME280;6903;49.480;11.102;2023-04-25T00:58:20;97152.22;;;9.45;100.00
13661;BME280;6903;49.480;11.102;2023-04-25T01:00:47;97148.75;;;9.45;100.00
13661;BME280;6903;49.480;11.102;2023-04-25T01:03:14;97146.97;;;9.45;100.00
13661;BME280;6903;49.480;11.102;2023-04-25T01:05:41;97145.28;;;9.44;100.00
13661;BME280;6903;49.480;11.102;2023-04-25T01:08:07;97146.97;;;9.45;100.00
13661;BME280;6903;49.480;11.102;2023-04-25T01:10:32;97152.09;;;9.47;100.00
13661;BME280;6903;49.480;11.102;2023-04-25T01:12:57;97139.59;;;9.49;100.00
13661;BME280;6903;49.480;11.102;2023-04-25T01:15:23;97148.34;;;9.49;100.00
13661;BME280;6903;49.480;11.102;2023-04-25T01:17:49;97143.06;;;9.49;100.00
13661;BME280;6903;49.480;11.102;2023-04-25T01:20:15;97142.22;;;9.49;100.00
13661;BME280;6903;49.480;11.102;2023-04-25T01:22:41;97137.09;;;9.47;100.00
13661;BME280;6903;49.480;11.102;2023-04-25T01:25:07;97137.09;;;9.47;100.00
13661;BME280;6903;49.480;11.102;2023-04-25T01:27:33;97131.41;;;9.42;100.00
13661;BME280;6903;49.480;11.102;2023-04-25T01:29:59;97131.31;;;9.44;100.00
13661;BME280;6903;49.480;11.102;2023-04-25T01:32:25;97138.09;;;9.46;100.00
13661;BME280;6903;49.480;11.102;2023-04-25T01:34:51;97131.19;;;9.45;100.00
13661;BME280;6903;49.480;11.102;2023-04-25T01:37:16;97139.19;;;9.44;100.00
13661;BME280;6903;49.480;11.102;2023-04-25T01:39:42;97132.66;;;9.38;100.00
13661;BME280;6903;49.480;11.102;2023-04-25T01:42:07;97140.81;;;9.35;100.00
13661;BME280;6903;49.480;11.102;2023-04-25T01:44:33;97144.09;;;9.28;100.00
13661;BME280;6903;49.480;11.102;2023-04-25T01:46:58;97132.47;;;9.21;100.00
13661;BME280;6903;49.480;11.102;2023-04-25T01:49:23;97136.31;;;9.17;100.00
13661;BME280;6903;49.480;11.102;2023-04-25T01:51:49;97129.09;;;9.09;100.00
13661;BME280;6903;49.480;11.102;2023-04-25T01:54:14;97147.91;;;9.05;100.00
13661;BME280;6903;49.480;11.102;2023-04-25T01:56:40;97144.84;;;9.00;100.00
13661;BME280;6903;49.480;11.102;2023-04-25T01:59:05;97146.91;;;8.96;100.00
13661;BME280;6903;49.480;11.102;2023-04-25T02:01:32;97139.72;;;8.98;100.00
13661;BME280;6903;49.480;11.102;2023-04-25T02:03:57;97151.19;;;8.97;100.00
13661;BME280;6903;49.480;11.102;2023-04-25T02:06:22;97150.25;;;8.98;100.00
13661;BME280;6903;49.480;11.102;2023-04-25T02:08:48;97149.00;;;9.02;100.00
13661;BME280;6903;49.480;11.102;2023-04-25T02:11:13;97143.50;;;9.05;100.00
13661;BME280;6903;49.480;11.102;2023-04-25T02:13:38;97141.53;;;9.07;100.00
13661;BME280;6903;49.480;11.102;2023-04-25T02:16:04;97146.53;;;9.10;100.00
13661;BME280;6903;49.480;11.102;2023-04-25T02:18:29;97141.28;;;9.10;100.00
13661;BME280;6903;49.480;11.102;2023-04-25T02:20:55;97137.56;;;9.13;100.00
13661;BME280;6903;49.480;11.102;2023-04-25T02:23:20;97146.03;;;9.16;100.00
13661;BME280;6903;49.480;11.102;2023-04-25T02:25:45;97141.44;;;9.18;100.00
13661;BME280;6903;49.480;11.102;2023-04-25T02:28:11;97138.81;;;9.18;100.00
13661;BME280;6903;49.480;11.102;2023-04-25T02:30:36;97137.28;;;9.16;100.00
13661;BME280;6903;49.480;11.102;2023-04-25T02:33:01;97129.81;;;9.11;100.00
13661;BME280;6903;49.480;11.102;2023-04-25T02:35:27;97127.59;;;9.07;100.00
13661;BME280;6903;49.480;11.102;2023-04-25T02:37:52;97119.84;;;9.05;100.00
13661;BME280;6903;49.480;11.102;2023-04-25T02:40:17;97116.63;;;9.02;100.00
13661;BME280;6903;49.480;11.102;2023-04-25T02:42:43;97113.28;;;9.00;100.00
13661;BME280;6903;49.480;11.102;2023-04-25T02:45:10;97117.97;;;8.96;100.00
13661;BME280;6903;49.480;11.102;2023-04-25T02:47:36;97114.66;;;8.94;100.00
13661;BME280;6903;49.480;11.102;2023-04-25T02:50:01;97116.31;;;8.95;100.00
13661;BME280;6903;49.480;11.102;2023-04-25T02:52:27;97110.09;;;8.96;100.00
13661;BME280;6903;49.480;11.102;2023-04-25T02:54:52;97113.00;;;8.93;100.00
13661;BME280;6903;49.480;11.102;2023-04-25T02:57:17;97108.00;;;8.90;100.00
13661;BME280;6903;49.480;11.102;2023-04-25T02:59:43;97113.53;;;8.87;100.00
13661;BME280;6903;49.480;11.102;2023-04-25T03:02:08;97097.03;;;8.85;100.00
13661;BME280;6903;49.480;11.102;2023-04-25T03:04:33;97111.03;;;8.86;100.00
13661;BME280;6903;49.480;11.102;2023-04-25T03:06:58;97103.81;;;8.88;100.00
13661;BME280;6903;49.480;11.102;2023-04-25T03:09:24;97104.66;;;8.88;100.00
13661;BME280;6903;49.480;11.102;2023-04-25T03:11:49;97102.31;;;8.85;100.00
13661;BME280;6903;49.480;11.102;2023-04-25T03:14:14;97088.06;;;8.88;100.00
13661;BME280;6903;49.480;11.102;2023-04-25T03:16:40;97106.31;;;8.89;100.00
13661;BME280;6903;49.480;11.102;2023-04-25T03:19:05;97108.00;;;8.90;100.00
13661;BME280;6903;49.480;11.102;2023-04-25T03:21:32;97095.13;;;8.87;100.00
13661;BME280;6903;49.480;11.102;2023-04-25T03:23:59;97104.94;;;8.85;100.00
13661;BME280;6903;49.480;11.102;2023-04-25T03:26:24;97098.41;;;8.80;100.00
13661;BME280;6903;49.480;11.102;2023-04-25T03:28:50;97094.94;;;8.79;100.00
13661;BME280;6903;49.480;11.102;2023-04-25T03:31:15;97093.28;;;8.78;100.00
13661;BME280;6903;49.480;11.102;2023-04-25T03:33:40;97091.19;;;8.72;100.00
13661;BME280;6903;49.480;11.102;2023-04-25T03:36:06;97095.44;;;8.73;100.00
13661;BME280;6903;49.480;11.102;2023-04-25T03:38:31;97094.66;;;8.73;100.00
13661;BME280;6903;49.480;11.102;2023-04-25T03:40:57;97090.59;;;8.69;100.00
13661;BME280;6903;49.480;11.102;2023-04-25T03:43:22;97091.56;;;8.68;100.00
13661;BME280;6903;49.480;11.102;2023-04-25T03:45:48;97089.22;;;8.65;100.00
13661;BME280;6903;49.480;11.102;2023-04-25T03:48:13;97086.00;;;8.61;100.00
13661;BME280;6903;49.480;11.102;2023-04-25T03:50:38;97089.84;;;8.57;100.00
13661;BME280;6903;49.480;11.102;2023-04-25T03:53:03;97091.78;;;8.55;100.00
13661;BME280;6903;49.480;11.102;2023-04-25T03:55:29;97089.97;;;8.55;100.00
13661;BME280;6903;49.480;11.102;2023-04-25T03:57:54;97092.91;;;8.62;100.00
13661;BME280;6903;49.480;11.102;2023-04-25T04:00:19;97091.72;;;8.66;100.00
13661;BME280;6903;49.480;11.102;2023-04-25T04:02:45;97102.78;;;8.70;100.00
13661;BME280;6903;49.480;11.102;2023-04-25T04:05:10;97097.13;;;8.74;100.00
13661;BME280;6903;49.480;11.102;2023-04-25T04:07:35;97096.59;;;8.80;100.00
13661;BME280;6903;49.480;11.102;2023-04-25T04:10:06;97095.81;;;8.89;100.00
13661;BME280;6903;49.480;11.102;2023-04-25T04:12:32;97093.63;;;8.94;100.00
13661;BME280;6903;49.480;11.102;2023-04-25T04:14:57;97100.56;;;8.95;100.00
13661;BME280;6903;49.480;11.102;2023-04-25T04:17:23;97103.75;;;8.99;100.00
13661;BME280;6903;49.480;11.102;2023-04-25T04:19:48;97101.66;;;9.02;100.00
13661;BME280;6903;49.480;11.102;2023-04-25T04:22:13;97097.56;;;9.09;100.00
13661;BME280;6903;49.480;11.102;2023-04-25T04:24:39;97100.63;;;9.14;100.00
13661;BME280;6903;49.480;11.102;2023-04-25T04:27:05;97101.19;;;9.18;100.00
13661;BME280;6903;49.480;11.102;2023-04-25T04:29:30;97104.31;;;9.12;100.00
13661;BME280;6903;49.480;11.102;2023-04-25T04:31:56;97105.44;;;9.09;100.00
13661;BME280;6903;49.480;11.102;2023-04-25T04:34:21;97109.31;;;9.05;100.00
13661;BME280;6903;49.480;11.102;2023-04-25T04:36:47;97108.88;;;9.00;100.00
13661;BME280;6903;49.480;11.102;2023-04-25T04:39:13;97101.13;;;8.99;100.00
13661;BME280;6903;49.480;11.102;2023-04-25T04:41:38;97111.47;;;8.91;100.00
13661;BME280;6903;49.480;11.102;2023-04-25T04:44:05;97118.22;;;8.84;100.00
13661;BME280;6903;49.480;11.102;2023-04-25T04:46:32;97111.81;;;8.77;100.00
13661;BME280;6903;49.480;11.102;2023-04-25T04:49:03;97122.00;;;8.70;100.00
13661;BME280;6903;49.480;11.102;2023-04-25T04:51:28;97119.50;;;8.69;100.00
13661;BME280;6903;49.480;11.102;2023-04-25T04:53:53;97114.81;;;8.72;100.00
13661;BME280;6903;49.480;11.102;2023-04-25T04:56:23;97118.88;;;8.76;100.00
13661;BME280;6903;49.480;11.102;2023-04-25T04:58:50;97129.81;;;8.81;100.00
13661;BME280;6903;49.480;11.102;2023-04-25T05:01:16;97124.72;;;8.89;100.00
13661;BME280;6903;49.480;11.102;2023-04-25T05:03:41;97127.66;;;8.96;100.00
13661;BME280;6903;49.480;11.102;2023-04-25T05:06:06;97129.91;;;9.00;100.00
13661;BME280;6903;49.480;11.102;2023-04-25T05:08:31;97120.78;;;9.04;100.00
13661;BME280;6903;49.480;11.102;2023-04-25T05:10:57;97127.59;;;9.07;100.00
13661;BME280;6903;49.480;11.102;2023-04-25T05:13:22;97130.22;;;9.07;100.00
13661;BME280;6903;49.480;11.102;2023-04-25T05:15:47;97131.88;;;9.08;100.00
13661;BME280;6903;49.480;11.102;2023-04-25T05:18:13;97127.28;;;9.00;100.00
13661;BME280;6903;49.480;11.102;2023-04-25T05:20:38;97134.28;;;8.90;100.00
13661;BME280;6903;49.480;11.102;2023-04-25T05:23:03;97133.28;;;8.82;100.00
13661;BME280;6903;49.480;11.102;2023-04-25T05:25:29;97127.44;;;8.78;100.00
13661;BME280;6903;49.480;11.102;2023-04-25T05:27:54;97126.50;;;8.79;100.00
13661;BME280;6903;49.480;11.102;2023-04-25T05:30:19;97133.97;;;8.84;100.00
13661;BME280;6903;49.480;11.102;2023-04-25T05:32:45;97125.69;;;8.88;100.00
13661;BME280;6903;49.480;11.102;2023-04-25T05:35:11;97127.25;;;8.91;100.00
13661;BME280;6903;49.480;11.102;2023-04-25T05:37:37;97132.22;;;8.94;100.00
13661;BME280;6903;49.480;11.102;2023-04-25T05:40:02;97132.09;;;8.95;100.00
13661;BME280;6903;49.480;11.102;2023-04-25T05:42:32;97139.28;;;8.93;100.00
13661;BME280;6903;49.480;11.102;2023-04-25T05:44:57;97140.56;;;8.99;100.00
13661;BME280;6903;49.480;11.102;2023-04-25T05:47:22;97143.50;;;9.05;100.00
13661;BME280;6903;49.480;11.102;2023-04-25T05:49:47;97141.72;;;9.15;100.00
13661;BME280;6903;49.480;11.102;2023-04-25T05:52:13;97144.38;;;9.25;100.00
13661;BME280;6903;49.480;11.102;2023-04-25T05:54:38;97150.50;;;9.35;100.00
13661;BME280;6903;49.480;11.102;2023-04-25T05:57:03;97150.09;;;9.39;100.00
13661;BME280;6903;49.480;11.102;2023-04-25T05:59:29;97149.16;;;9.40;100.00
13661;BME280;6903;49.480;11.102;2023-04-25T06:01:54;97154.84;;;9.45;100.00
13661;BME280;6903;49.480;11.102;2023-04-25T06:04:20;97158.16;;;9.47;100.00
13661;BME280;6903;49.480;11.102;2023-04-25T06:06:45;97151.94;;;9.48;100.00
13661;BME280;6903;49.480;11.102;2023-04-25T06:09:10;97154.59;;;9.48;100.00
13661;BME280;6903;49.480;11.102;2023-04-25T06:11:35;97153.31;;;9.43;100.00
13661;BME280;6903;49.480;11.102;2023-04-25T06:14:01;97155.81;;;9.44;100.00
13661;BME280;6903;49.480;11.102;2023-04-25T06:16:26;97158.97;;;9.38;100.00
13661;BME280;6903;49.480;11.102;2023-04-25T06:18:51;97161.59;;;9.38;100.00
13661;BME280;6903;49.480;11.102;2023-04-25T06:21:17;97160.75;;;9.38;100.00
13661;BME280;6903;49.480;11.102;2023-04-25T06:23:42;97161.06;;;9.44;100.00
13661;BME280;6903;49.480;11.102;2023-04-25T06:26:07;97167.16;;;9.45;100.00
13661;BME280;6903;49.480;11.102;2023-04-25T06:28:33;97168.00;;;9.45;100.00
13661;BME280;6903;49.480;11.102;2023-04-25T06:30:58;97170.63;;;9.45;100.00
13661;BME280;6903;49.480;11.102;2023-04-25T06:33:23;97166.63;;;9.51;100.00
13661;BME280;6903;49.480;11.102;2023-04-25T06:35:49;97165.84;;;9.60;100.00
13661;BME280;6903;49.480;11.102;2023-04-25T06:38:15;97170.13;;;9.61;100.00
13661;BME280;6903;49.480;11.102;2023-04-25T06:40:40;97168.19;;;9.63;100.00
13661;BME280;6903;49.480;11.102;2023-04-25T06:43:06;97168.88;;;9.65;100.00
13661;BME280;6903;49.480;11.102;2023-04-25T06:45:31;97168.75;;;9.66;100.00
13661;BME280;6903;49.480;11.102;2023-04-25T06:47:57;97166.38;;;9.73;100.00
13661;BME280;6903;49.480;11.102;2023-04-25T06:50:22;97173.34;;;9.83;100.00
13661;BME280;6903;49.480;11.102;2023-04-25T06:52:47;97170.19;;;9.99;100.00
13661;BME280;6903;49.480;11.102;2023-04-25T06:55:13;97173.28;;;10.14;100.00
13661;BME280;6903;49.480;11.102;2023-04-25T06:57:38;97173.81;;;10.27;100.00
13661;BME280;6903;49.480;11.102;2023-04-25T07:00:04;97170.50;;;10.34;100.00
13661;BME280;6903;49.480;11.102;2023-04-25T07:02:33;97169.94;;;10.40;100.00
13661;BME280;6903;49.480;11.102;2023-04-25T07:04:58;97168.25;;;10.58;100.00
13661;BME280;6903;49.480;11.102;2023-04-25T07:07:25;97172.41;;;10.70;100.00
13661;BME280;6903;49.480;11.102;2023-04-25T07:09:50;97171.03;;;10.76;100.00
13661;BME280;6903;49.480;11.102;2023-04-25T07:12:15;97176.41;;;10.84;100.00
13661;BME280;6903;49.480;11.102;2023-04-25T07:14:41;97185.00;;;10.76;100.00
13661;BME280;6903;49.480;11.102;2023-04-25T07:17:06;97179.78;;;10.57;100.00
13661;BME280;6903;49.480;11.102;2023-04-25T07:19:32;97176.03;;;10.41;100.00
13661;BME280;6903;49.480;11.102;2023-04-25T07:21:58;97184.94;;;10.30;100.00
13661;BME280;6903;49.480;11.102;2023-04-25T07:24:23;97195.59;;;10.29;100.00
13661;BME280;6903;49.480;11.102;2023-04-25T07:26:48;97204.56;;;10.07;100.00
13661;BME280;6903;49.480;11.102;2023-04-25T07:29:14;97199.81;;;9.82;100.00
13661;BME280;6903;49.480;11.102;2023-04-25T07:31:39;97209.91;;;9.67;100.00
13661;BME280;6903;49.480;11.102;2023-04-25T07:34:05;97211.75;;;9.46;100.00
13661;BME280;6903;49.480;11.102;2023-04-25T07:36:30;97207.72;;;9.12;100.00
13661;BME280;6903;49.480;11.102;2023-04-25T07:38:56;97202.00;;;8.77;100.00
13661;BME280;6903;49.480;11.102;2023-04-25T07:41:21;97211.22;;;8.51;100.00
13661;BME280;6903;49.480;11.102;2023-04-25T07:43:47;97208.25;;;8.44;100.00
13661;BME280;6903;49.480;11.102;2023-04-25T07:46:12;97211.88;;;8.43;100.00
13661;BME280;6903;49.480;11.102;2023-04-25T07:48:37;97215.63;;;8.50;100.00
13661;BME280;6903;49.480;11.102;2023-04-25T07:51:03;97219.44;;;8.57;100.00
13661;BME280;6903;49.480;11.102;2023-04-25T07:53:30;97214.69;;;8.72;100.00
13661;BME280;6903;49.480;11.102;2023-04-25T07:55:55;97222.69;;;8.91;100.00
13661;BME280;6903;49.480;11.102;2023-04-25T07:58:20;97225.00;;;9.05;100.00
13661;BME280;6903;49.480;11.102;2023-04-25T08:00:47;97227.16;;;9.21;100.00
13661;BME280;6903;49.480;11.102;2023-04-25T08:03:13;97232.16;;;9.24;100.00
13661;BME280;6903;49.480;11.102;2023-04-25T08:05:38;97232.72;;;9.27;100.00
13661;BME280;6903;49.480;11.102;2023-04-25T08:08:03;97230.81;;;9.29;100.00
13661;BME280;6903;49.480;11.102;2023-04-25T08:10:31;97230.09;;;9.27;100.00
13661;BME280;6903;49.480;11.102;2023-04-25T08:12:56;97228.31;;;9.07;100.00
13661;BME280;6903;49.480;11.102;2023-04-25T08:15:22;97233.44;;;9.09;100.00
13661;BME280;6903;49.480;11.102;2023-04-25T08:17:47;97234.91;;;9.22;100.00
13661;BME280;6903;49.480;11.102;2023-04-25T08:20:12;97236.25;;;9.37;100.00
13661;BME280;6903;49.480;11.102;2023-04-25T08:22:38;97243.09;;;9.59;100.00
13661;BME280;6903;49.480;11.102;2023-04-25T08:25:03;97247.06;;;9.83;100.00
13661;BME280;6903;49.480;11.102;2023-04-25T08:27:29;97242.81;;;10.01;100.00
13661;BME280;6903;49.480;11.102;2023-04-25T08:29:54;97245.38;;;10.13;100.00
13661;BME280;6903;49.480;11.102;2023-04-25T08:32:20;97258.00;;;10.28;100.00
13661;BME280;6903;49.480;11.102;2023-04-25T08:34:46;97251.94;;;10.56;100.00
13661;BME280;6903;49.480;11.102;2023-04-25T08:37:12;97251.34;;;10.81;100.00
13661;BME280;6903;49.480;11.102;2023-04-25T08:39:37;97246.59;;;11.04;100.00
13661;BME280;6903;49.480;11.102;2023-04-25T08:42:05;97256.41;;;11.30;100.00
13661;BME280;6903;49.480;11.102;2023-04-25T08:44:34;97259.66;;;11.61;100.00
13661;BME280;6903;49.480;11.102;2023-04-25T08:47:02;97250.09;;;12.14;100.00
13661;BME280;6903;49.480;11.102;2023-04-25T08:49:28;97247.03;;;12.54;100.00
13661;BME280;6903;49.480;11.102;2023-04-25T08:51:57;97249.66;;;13.07;100.00
13661;BME280;6903;49.480;11.102;2023-04-25T08:54:23;97257.38;;;13.43;100.00
13661;BME280;6903;49.480;11.102;2023-04-25T08:56:54;97259.00;;;13.70;100.00
13661;BME280;6903;49.480;11.102;2023-04-25T08:59:20;97259.13;;;14.02;100.00
13661;BME280;6903;49.480;11.102;2023-04-25T09:01:46;97260.53;;;14.14;100.00
13661;BME280;6903;49.480;11.102;2023-04-25T09:04:12;97265.56;;;14.25;100.00
13661;BME280;6903;49.480;11.102;2023-04-25T09:06:37;97263.34;;;14.20;100.00
13661;BME280;6903;49.480;11.102;2023-04-25T09:09:04;97258.66;;;14.06;100.00
13661;BME280;6903;49.480;11.102;2023-04-25T09:11:30;97269.53;;;13.95;100.00
13661;BME280;6903;49.480;11.102;2023-04-25T09:21:51;97270.81;;;13.50;100.00
13661;BME280;6903;49.480;11.102;2023-04-25T09:24:37;97274.47;;;13.57;100.00
13661;BME280;6903;49.480;11.102;2023-04-25T09:27:07;97272.84;;;13.89;100.00
13661;BME280;6903;49.480;11.102;2023-04-25T09:29:35;97274.31;;;14.26;100.00
13661;BME280;6903;49.480;11.102;2023-04-25T09:32:15;97278.38;;;14.46;100.00
13661;BME280;6903;49.480;11.102;2023-04-25T09:34:49;97267.06;;;14.36;100.00
13661;BME280;6903;49.480;11.102;2023-04-25T09:37:29;97274.88;;;14.45;100.00
13661;BME280;6903;49.480;11.102;2023-04-25T09:39:56;97277.56;;;14.69;100.00
13661;BME280;6903;49.480;11.102;2023-04-25T09:42:23;97276.28;;;15.37;100.00
13661;BME280;6903;49.480;11.102;2023-04-25T09:44:51;97286.28;;;15.98;100.00
13661;BME280;6903;49.480;11.102;2023-04-25T09:47:17;97276.50;;;16.37;100.00
13661;BME280;6903;49.480;11.102;2023-04-25T09:49:43;97276.31;;;16.39;100.00
13661;BME280;6903;49.480;11.102;2023-04-25T09:52:19;97285.25;;;16.54;100.00
13661;BME280;6903;49.480;11.102;2023-04-25T09:54:47;97272.53;;;16.64;100.00
13661;BME280;6903;49.480;11.102;2023-04-25T09:57:20;97263.69;;;16.71;100.00
13661;BME280;6903;49.480;11.102;2023-04-25T10:02:12;97272.63;;;17.75;100.00
13661;BME280;6903;49.480;11.102;2023-04-25T10:04:38;97266.53;;;18.54;96.10
13661;BME280;6903;49.480;11.102;2023-04-25T10:07:06;97262.00;;;18.90;86.52
13661;BME280;6903;49.480;11.102;2023-04-25T10:09:32;97264.22;;;18.87;74.91
13661;BME280;6903;49.480;11.102;2023-04-25T10:12:00;97270.22;;;19.10;78.75
13661;BME280;6903;49.480;11.102;2023-04-25T10:14:26;97287.63;;;19.27;76.25
13661;BME280;6903;49.480;11.102;2023-04-25T10:16:52;97275.53;;;18.89;69.03
13661;BME280;6903;49.480;11.102;2023-04-25T10:19:19;97272.72;;;18.25;68.28
13661;BME280;6903;49.480;11.102;2023-04-25T10:22:02;97279.19;;;17.87;69.52
13661;BME280;6903;49.480;11.102;2023-04-25T10:24:28;97273.44;;;17.61;65.65
13661;BME280;6903;49.480;11.102;2023-04-25T10:26:53;97273.25;;;17.63;67.90
13661;BME280;6903;49.480;11.102;2023-04-25T10:29:24;97273.09;;;18.08;65.32
13661;BME280;6903;49.480;11.102;2023-04-25T10:31:49;97269.16;;;18.69;61.94
13661;BME280;6903;49.480;11.102;2023-04-25T10:34:16;97267.34;;;19.11;58.15
13661;BME280;6903;49.480;11.102;2023-04-25T10:36:41;97272.19;;;19.43;56.31
13661;BME280;6903;49.480;11.102;2023-04-25T10:39:07;97269.06;;;19.95;56.08
13661;BME280;6903;49.480;11.102;2023-04-25T10:41:52;97258.50;;;20.15;54.70
13661;BME280;6903;49.480;11.102;2023-04-25T10:44:17;97270.09;;;19.94;52.88
13661;BME280;6903;49.480;11.102;2023-04-25T10:46:44;97262.00;;;19.11;53.97
13661;BME280;6903;49.480;11.102;2023-04-25T10:49:09;97268.66;;;19.01;55.12
13661;BME280;6903;49.480;11.102;2023-04-25T10:51:36;97267.28;;;18.84;55.78
13661;BME280;6903;49.480;11.102;2023-04-25T10:54:06;97265.38;;;19.20;56.13
13661;BME280;6903;49.480;11.102;2023-04-25T10:59:13;97270.84;;;18.91;50.69
13661;BME280;6903;49.480;11.102;2023-04-25T11:01:44;97275.13;;;18.71;51.96
13661;BME280;6903;49.480;11.102;2023-04-25T11:04:28;97262.25;;;18.95;55.85
13661;BME280;6903;49.480;11.102;2023-04-25T11:07:13;97264.75;;;20.01;51.52
13661;BME280;6903;49.480;11.102;2023-04-25T11:09:44;97266.22;;;20.37;49.90
13661;BME280;6903;49.480;11.102;2023-04-25T11:12:10;97269.13;;;20.42;49.09
13661;BME280;6903;49.480;11.102;2023-04-25T11:14:37;97270.31;;;20.33;49.00
13661;BME280;6903;49.480;11.102;2023-04-25T11:17:02;97268.91;;;20.37;50.01
13661;BME280;6903;49.480;11.102;2023-04-25T11:19:28;97265.25;;;20.51;49.93
13661;BME280;6903;49.480;11.102;2023-04-25T11:21:58;97282.34;;;20.50;47.34
13661;BME280;6903;49.480;11.102;2023-04-25T11:24:30;97276.06;;;20.30;47.43
13661;BME280;6903;49.480;11.102;2023-04-25T11:26:57;97281.56;;;19.88;45.89
13661;BME280;6903;49.480;11.102;2023-04-25T11:29:26;97279.41;;;19.49;48.14
13661;BME280;6903;49.480;11.102;2023-04-25T11:31:52;97280.16;;;19.92;48.06
13661;BME280;6903;49.480;11.102;2023-04-25T11:34:18;97276.22;;;20.22;47.71
13661;BME280;6903;49.480;11.102;2023-04-25T11:36:45;97293.13;;;19.95;48.26
13661;BME280;6903;49.480;11.102;2023-04-25T11:39:10;97289.44;;;19.20;47.87
13661;BME280;6903;49.480;11.102;2023-04-25T11:41:37;97285.03;;;18.56;49.38
13661;BME280;6903;49.480;11.102;2023-04-25T11:44:03;97290.31;;;18.34;50.78
13661;BME280;6903;49.480;11.102;2023-04-25T11:46:28;97280.78;;;17.59;51.48
13661;BME280;6903;49.480;11.102;2023-04-25T11:48:55;97292.91;;;17.25;52.29
13661;BME280;6903;49.480;11.102;2023-04-25T11:51:20;97287.22;;;17.50;52.46
13661;BME280;6903;49.480;11.102;2023-04-25T11:53:46;97291.28;;;17.75;51.33
13661;BME280;6903;49.480;11.102;2023-04-25T11:56:12;97288.91;;;17.95;50.25
13661;BME280;6903;49.480;11.102;2023-04-25T11:59:00;97294.16;;;18.47;49.31
13661;BME280;6903;49.480;11.102;2023-04-25T12:01:29;97296.50;;;18.71;47.72
13661;BME280;6903;49.480;11.102;2023-04-25T12:03:55;97294.44;;;18.52;47.85
13661;BME280;6903;49.480;11.102;2023-04-25T12:06:21;97291.72;;;18.66;47.17
13661;BME280;6903;49.480;11.102;2023-04-25T12:09:07;97301.41;;;18.23;44.49
13661;BME280;6903;49.480;11.102;2023-04-25T12:11:41;97299.38;;;17.67;48.15
13661;BME280;6903;49.480;11.102;2023-04-25T12:14:07;97294.25;;;17.43;47.23
13661;BME280;6903;49.480;11.102;2023-04-25T12:16:43;97304.38;;;17.25;48.75
13661;BME280;6903;49.480;11.102;2023-04-25T12:19:09;97306.00;;;17.34;49.30
13661;BME280;6903;49.480;11.102;2023-04-25T12:21:35;97303.97;;;17.59;49.12
13661;BME280;6903;49.480;11.102;2023-04-25T12:24:14;97323.59;;;17.80;48.43
13661;BME280;6903;49.480;11.102;2023-04-25T12:26:47;97329.28;;;17.77;48.28
13661;BME280;6903;49.480;11.102;2023-04-25T12:29:20;97322.78;;;18.09;48.44
13661;BME280;6903;49.480;11.102;2023-04-25T12:31:46;97332.94;;;18.43;46.51
13661;BME280;6903;49.480;11.102;2023-04-25T12:34:12;97325.72;;;18.14;45.88
13661;BME280;6903;49.480;11.102;2023-04-25T12:36:37;97330.78;;;18.38;46.77
13661;BME280;6903;49.480;11.102;2023-04-25T12:39:03;97334.19;;;18.17;46.02
13661;BME280;6903;49.480;11.102;2023-04-25T12:41:29;97332.13;;;17.76;46.26
13661;BME280;6903;49.480;11.102;2023-04-25T12:43:55;97335.66;;;17.31;47.35
13661;BME280;6903;49.480;11.102;2023-04-25T12:46:20;97330.09;;;17.18;49.42
13661;BME280;6903;49.480;11.102;2023-04-25T12:48:45;97339.69;;;17.27;49.14
13661;BME280;6903;49.480;11.102;2023-04-25T12:51:11;97339.09;;;17.17;48.86
13661;BME280;6903;49.480;11.102;2023-04-25T12:53:36;97331.44;;;17.14;49.32
13661;BME280;6903;49.480;11.102;2023-04-25T12:56:04;97339.69;;;16.74;47.75
13661;BME280;6903;49.480;11.102;2023-04-25T12:58:29;97334.38;;;16.74;49.13
13661;BME280;6903;49.480;11.102;2023-04-25T13:00:54;97346.78;;;16.59;49.34
13661;BME280;6903;49.480;11.102;2023-04-25T13:03:20;97343.16;;;16.52;49.16
13661;BME280;6903;49.480;11.102;2023-04-25T13:05:45;97345.91;;;16.66;49.33
13661;BME280;6903;49.480;11.102;2023-04-25T13:08:11;97356.34;;;16.76;49.34